ENTC Airport Information

Runway Information
Runway 01 Length 7848 ft width 148 ft
Elevation 25 ft Threshold 0 ft Heading 13
Runway 19 Length 7848 ft Width 148 ft
Elevation 13 ft Threshold 1286 ft Heading 193
Airport Frequencies
Type APP Name APP Frequency 123.75 MHZ
Type ATIS Name ATIS Frequency 126.125 MHZ
Type TWR Name TWR Frequency 118.3 MHZ
Airport Navaids
Type NDB Name Kobbe Frequency 283 KHZ
Type NDB Name Kvalsund Frequency 362 KHZ
Type NDB Name Lanes Frequency 268 KHZ
Type VOR-DME Name Tromso Frequency 113800 KHZ
Airport Weather Information & NOTAM
Deprecated: The each() function is deprecated. This message will be suppressed on further calls in /storage/content/79/1005879/virtualnac.org/public_html/v2/lib/functions.php on line 154 ADDS - METARS form results

(1106 UTC 17 April 2021)
Data provider http://aviationweather.gov/metar/data/
 
METAR text: ENTC 171050Z 20011KT CAVOK 07/01 Q1032 NOSIG RMK WIND 2600FT 19018KT
Conditions at: ENTC (TROMSO/LANGNES , NO) observed 1050 UTC 17 April 2021
Temperature: 7.0°C (45°F)
Dewpoint: 1.0°C (34°F) [RH = 66%]
Pressure (altimeter): 30.47 inches Hg (1032.0 mb)
Winds: from the SSW (200 degrees) at 13 MPH (11 knots; 5.7 m/s)
Visibility: 6 or more miles (10+ km)
Ceiling: ceiling and visibility are OK
Clouds: unknown
Weather: no significant weather observed at this time

METAR text: ENTC 171020Z 21012KT CAVOK 06/00 Q1032 NOSIG RMK WIND 2600FT 20015KT
Conditions at: ENTC (TROMSO/LANGNES , NO) observed 1020 UTC 17 April 2021
Temperature: 6.0°C (43°F)
Dewpoint: 0.0°C (32°F) [RH = 65%]
Pressure (altimeter): 30.47 inches Hg (1032.0 mb)
Winds: from the SSW (210 degrees) at 14 MPH (12 knots; 6.2 m/s)
Visibility: 6 or more miles (10+ km)
Ceiling: ceiling and visibility are OK
Clouds: unknown
Weather: no significant weather observed at this time

Forecast for: ENTC (TROMSO/LANGNES , NO)
Text: TAF ENTC 1706/1806 21012KT CAVOK
Forecast period: 0600 UTC 17 April 2021 to 0600 UTC 18 April 2021
Forecast type: FROM: standard forecast or significant change
Winds: from the SSW (210 degrees) at 14 MPH (12 knots; 6.2 m/s)
Visibility: 6 or more miles (10+ km)
Ceiling: unknown
Clouds: missing
Weather: NSW  (no significant weather)